Dunbar, Kentucky
Current Conditions -  °F | °C
As of 9:53 AM on Saturday 25 Oct 2014 (Local Time) from KBWG Reporting Station
Scattered Clouds Scattered Clouds  
Wind Chill: 62°   Ceiling: Unl
Heat Index: 62°   Visibility: 10mi
Dew Point: 53°   Wind: 7mph
Humidity: 72%   Direction: 210°SSW
Pressure: 30.07"   Gusts: NA
Location:  37.16°N, 86.76°W
Report Text: KBWG 251453Z AUTO 21006KT 10SM SCT038 SCT055 17/12 A3007 RMK AO2 SLP180 T01670117 58001
Loading
Personal Weather Stations






























Interactive Weather Map
Tropical Storm Tracking
New forecast layout! Learn more

10-Day Weather Forecast

Advertisements
Track Severe Weather on mobile